»·PEaware :: SWA335 KLAS-KSUN

SWA335 :: KLAS-KSUN

FLIGHT INFORMATION

Flight Status: Arrived
Operator:
Southwest Airlines
More flights by this operator :: More flights under this callsign
Pilot: Robert A. (6703)
Aircraft: BOEING 737-300
(B733)
More flights by this aircraft type
Origin: KLAS McCarran Intl
United States
Destination: KSUN Friedman Meml
United States
More flights between these airports :: More routes between these airports
Route: STAAV8 MLF J9 FFU TCH
File this flight plan on PilotEdge
Remarks: / L DME MODE C RVSM
Altitude:
(Current/Filed)
33,000ft
Speed:
(Current/Filed)
430kts
Departed: 15-Apr-18 09:27 AM
Arrived: 15-Apr-18 10:46 AM
Distance/Time
Traveled:
447nm/1:19
Distance/Time
To Go:
Arrived

Flight Plot

Page will automatically refresh every two minutes.

Flight plan parsing failed; only flown route is shown


Map Options




Map Legend


Flown Route
Filed Route
Departure Airport
Arrival Airport
Navaid (VOR, NDB)
Fix

Horizontal Profiles

Position Reports

Time Latitude Longitude Heading Altitude Ground
Speed
15-Apr-18 09:03 36.080181 -115.145647 270 2091ft 0kts
15-Apr-18 09:04 36.080181 -115.145647 270 2091ft 0kts
15-Apr-18 09:05 36.080181 -115.145647 270 2091ft 0kts
15-Apr-18 09:06 36.080181 -115.145647 270 2091ft 0kts
15-Apr-18 09:07 36.080181 -115.145647 270 2091ft 0kts
15-Apr-18 09:08 36.080181 -115.145647 270 2091ft 0kts
15-Apr-18 09:09 36.080181 -115.145647 270 2091ft 0kts
15-Apr-18 09:10 36.080181 -115.145647 270 2091ft 0kts
15-Apr-18 09:11 36.080181 -115.145647 270 2091ft 0kts
15-Apr-18 09:12 36.080181 -115.145647 270 2091ft 0kts
15-Apr-18 09:13 36.080181 -115.145647 270 2091ft 0kts
15-Apr-18 09:14 36.080189 -115.144730 233 2089ft 1kts
15-Apr-18 09:15 36.080264 -115.144641 220 2088ft 0kts
15-Apr-18 09:16 36.080264 -115.144641 220 2088ft 0kts
15-Apr-18 09:17 36.080264 -115.144641 220 2088ft 0kts
15-Apr-18 09:18 36.080264 -115.144641 220 2088ft 0kts
15-Apr-18 09:19 36.080264 -115.144641 220 2088ft 0kts
15-Apr-18 09:20 36.080023 -115.144797 195 2089ft 5kts
15-Apr-18 09:21 36.078264 -115.143090 90 2086ft 18kts
15-Apr-18 09:22 36.078286 -115.133791 88 2059ft 34kts
15-Apr-18 09:23 36.078269 -115.123592 89 2038ft 20kts
15-Apr-18 09:24 36.077527 -115.121561 132 2036ft 0kts
15-Apr-18 09:25 36.076435 -115.123219 270 2038ft 23kts
15-Apr-18 09:26 36.076442 -115.162444 271 2802ft 163kts
15-Apr-18 09:27 36.077428 -115.229236 268 4319ft 237kts
15-Apr-18 09:28 36.106827 -115.291105 349 7410ft 251kts
15-Apr-18 09:29 36.167987 -115.270529 50 10329ft 257kts
15-Apr-18 09:30 36.196523 -115.176914 92 11066ft 341kts
15-Apr-18 09:31 36.197482 -115.072599 91 12637ft 382kts
15-Apr-18 09:32 36.198961 -114.937807 91 15239ft 402kts
15-Apr-18 09:33 36.201268 -114.796079 82 17607ft 423kts
15-Apr-18 09:34 36.281971 -114.698916 27 18968ft 427kts
15-Apr-18 09:35 36.378710 -114.612151 33 19060ft 430kts
15-Apr-18 09:36 36.475378 -114.520626 33 21174ft 445kts
15-Apr-18 09:37 36.577220 -114.429332 26 23137ft 457kts
15-Apr-18 09:38 36.686141 -114.345728 27 25013ft 469kts
15-Apr-18 09:39 36.798094 -114.258651 27 26634ft 483kts
15-Apr-18 09:40 36.913005 -114.169204 27 28320ft 491kts
15-Apr-18 09:41 37.028504 -114.078974 26 30229ft 488kts
15-Apr-18 09:42 37.142774 -113.989517 25 31815ft 489kts
15-Apr-18 09:43 37.257068 -113.899681 25 33174ft 487kts
15-Apr-18 09:44 37.371422 -113.809369 25 33164ft 485kts
15-Apr-18 09:45 37.485639 -113.718867 25 33166ft 487kts
15-Apr-18 09:46 37.599826 -113.628038 25 33165ft 487kts
15-Apr-18 09:47 37.713675 -113.537194 25 33165ft 487kts
15-Apr-18 09:48 37.827853 -113.445663 25 33165ft 487kts
15-Apr-18 09:49 37.942451 -113.353485 25 33170ft 487kts
15-Apr-18 09:50 38.056377 -113.261240 26 33142ft 488kts
15-Apr-18 09:51 38.170036 -113.169300 26 33139ft 488kts
15-Apr-18 09:52 38.284367 -113.076336 26 33139ft 488kts
15-Apr-18 09:53 38.400089 -112.989929 14 33143ft 477kts
15-Apr-18 09:54 38.522427 -112.925130 15 33138ft 478kts
15-Apr-18 09:55 38.644283 -112.858729 15 33138ft 478kts
15-Apr-18 09:56 38.755735 -112.797070 12 33106ft 457kts
15-Apr-18 09:57 38.867114 -112.736048 12 33105ft 476kts
15-Apr-18 09:58 38.989098 -112.669021 12 33113ft 476kts
15-Apr-18 09:59 39.110372 -112.602049 12 33081ft 475kts
15-Apr-18 10:00 39.231285 -112.535145 12 33117ft 478kts
15-Apr-18 10:01 39.352672 -112.467560 12 33109ft 477kts
15-Apr-18 10:02 39.474634 -112.399448 12 33112ft 478kts
15-Apr-18 10:03 39.595965 -112.331315 13 33096ft 479kts
15-Apr-18 10:04 39.716979 -112.263028 13 33112ft 479kts
15-Apr-18 10:05 39.837104 -112.195160 13 33121ft 479kts
15-Apr-18 10:06 39.950948 -112.130604 13 33139ft 479kts
15-Apr-18 10:07 40.058261 -112.146107 300 33119ft 377kts
15-Apr-18 10:08 40.140704 -112.226963 327 33142ft 414kts
15-Apr-18 10:09 40.246879 -112.284029 327 33093ft 414kts
15-Apr-18 10:10 40.353075 -112.341251 327 33083ft 414kts
15-Apr-18 10:11 40.459375 -112.398731 327 33086ft 416kts
15-Apr-18 10:12 40.565596 -112.456362 327 33083ft 415kts
15-Apr-18 10:13 40.673021 -112.514832 327 33088ft 414kts
15-Apr-18 10:14 40.779060 -112.572816 327 33081ft 418kts
15-Apr-18 10:15 40.886440 -112.631669 327 33141ft 418kts
15-Apr-18 10:16 40.992823 -112.690403 326 33138ft 417kts
15-Apr-18 10:17 41.100028 -112.749639 326 33136ft 418kts
15-Apr-18 10:18 41.205257 -112.807738 326 33139ft 418kts
15-Apr-18 10:19 41.312654 -112.867443 326 33137ft 418kts
15-Apr-18 10:20 41.419579 -112.927109 326 33133ft 418kts
15-Apr-18 10:21 41.526760 -112.987130 326 33110ft 419kts
15-Apr-18 10:22 41.633690 -113.047231 326 33123ft 419kts
15-Apr-18 10:23 41.740505 -113.107479 326 33110ft 418kts
15-Apr-18 10:24 41.847442 -113.168020 326 33072ft 419kts
15-Apr-18 10:25 41.954400 -113.228732 326 33027ft 418kts
15-Apr-18 10:26 42.060936 -113.289472 326 33029ft 418kts
15-Apr-18 10:27 42.166777 -113.349863 326 33031ft 418kts
15-Apr-18 10:28 42.273262 -113.410994 326 32848ft 416kts
15-Apr-18 10:29 42.379515 -113.472250 326 29326ft 417kts
15-Apr-18 10:30 42.486228 -113.534073 329 26742ft 429kts
15-Apr-18 10:31 42.592824 -113.595863 330 24382ft 407kts
15-Apr-18 10:32 42.695326 -113.655673 330 22134ft 403kts
15-Apr-18 10:33 42.795481 -113.714430 330 19680ft 388kts
15-Apr-18 10:34 42.893048 -113.771707 331 16531ft 378kts
15-Apr-18 10:35 42.987301 -113.827213 332 13436ft 361kts
15-Apr-18 10:36 43.076244 -113.879785 335 10782ft 337kts
15-Apr-18 10:37 43.147194 -113.944443 307 9158ft 293kts
15-Apr-18 10:38 43.194970 -114.021918 322 9024ft 249kts
15-Apr-18 10:39 43.249273 -114.080345 322 9019ft 248kts
15-Apr-18 10:40 43.303177 -114.138431 322 8999ft 247kts
15-Apr-18 10:41 43.359679 -114.191485 334 8687ft 248kts
15-Apr-18 10:42 43.418384 -114.224671 336 6752ft 195kts
15-Apr-18 10:43 43.459418 -114.254295 332 5966ft 148kts
15-Apr-18 10:44 43.492501 -114.284674 326 5364ft 138kts
15-Apr-18 10:45 43.508713 -114.300460 286 5307ft 13kts

Navigation Log

Ident Type
Flight plan parsing failed, navigation log unavailable